sensor_id;sensor_type;location;lat;lon;timestamp;P1;durP1;ratioP1;P2;durP2;ratioP2
4174;SDS011;2101;48.290;14.382;2023-04-24T00:00:40;12.37;;;1.23;;
4174;SDS011;2101;48.290;14.382;2023-04-24T00:03:06;14.30;;;1.63;;
4174;SDS011;2101;48.290;14.382;2023-04-24T00:05:33;16.27;;;1.80;;
4174;SDS011;2101;48.290;14.382;2023-04-24T00:07:59;15.10;;;1.20;;
4174;SDS011;2101;48.290;14.382;2023-04-24T00:10:25;19.37;;;1.90;;
4174;SDS011;2101;48.290;14.382;2023-04-24T00:12:51;13.10;;;1.30;;
4174;SDS011;2101;48.290;14.382;2023-04-24T00:15:21;13.30;;;1.50;;
4174;SDS011;2101;48.290;14.382;2023-04-24T00:17:47;13.63;;;1.40;;
4174;SDS011;2101;48.290;14.382;2023-04-24T00:20:13;13.17;;;1.57;;
4174;SDS011;2101;48.290;14.382;2023-04-24T00:22:40;17.33;;;2.23;;
4174;SDS011;2101;48.290;14.382;2023-04-24T00:25:09;13.90;;;1.70;;
4174;SDS011;2101;48.290;14.382;2023-04-24T00:27:35;18.60;;;1.70;;
4174;SDS011;2101;48.290;14.382;2023-04-24T00:30:06;15.33;;;1.50;;
4174;SDS011;2101;48.290;14.382;2023-04-24T00:32:32;15.10;;;1.83;;
4174;SDS011;2101;48.290;14.382;2023-04-24T00:34:58;15.47;;;2.00;;
4174;SDS011;2101;48.290;14.382;2023-04-24T00:37:24;17.17;;;1.63;;
4174;SDS011;2101;48.290;14.382;2023-04-24T00:39:50;15.17;;;1.60;;
4174;SDS011;2101;48.290;14.382;2023-04-24T00:42:16;14.20;;;1.53;;
4174;SDS011;2101;48.290;14.382;2023-04-24T00:44:42;14.10;;;1.60;;
4174;SDS011;2101;48.290;14.382;2023-04-24T00:47:09;16.67;;;2.00;;
4174;SDS011;2101;48.290;14.382;2023-04-24T00:49:35;13.47;;;1.43;;
4174;SDS011;2101;48.290;14.382;2023-04-24T00:52:02;17.07;;;2.47;;
4174;SDS011;2101;48.290;14.382;2023-04-24T00:54:32;14.23;;;1.90;;
4174;SDS011;2101;48.290;14.382;2023-04-24T00:56:58;14.67;;;1.60;;
4174;SDS011;2101;48.290;14.382;2023-04-24T00:59:26;15.60;;;1.77;;
4174;SDS011;2101;48.290;14.382;2023-04-24T01:01:52;14.23;;;1.80;;
4174;SDS011;2101;48.290;14.382;2023-04-24T01:04:18;14.47;;;1.93;;
4174;SDS011;2101;48.290;14.382;2023-04-24T01:06:45;22.53;;;2.10;;
4174;SDS011;2101;48.290;14.382;2023-04-24T01:09:12;13.83;;;1.80;;
4174;SDS011;2101;48.290;14.382;2023-04-24T01:11:39;15.50;;;1.93;;
4174;SDS011;2101;48.290;14.382;2023-04-24T01:14:07;16.60;;;1.93;;
4174;SDS011;2101;48.290;14.382;2023-04-24T01:16:33;17.27;;;1.43;;
4174;SDS011;2101;48.290;14.382;2023-04-24T01:18:59;17.97;;;2.40;;
4174;SDS011;2101;48.290;14.382;2023-04-24T01:21:26;12.97;;;1.30;;
4174;SDS011;2101;48.290;14.382;2023-04-24T01:23:55;17.90;;;2.00;;
4174;SDS011;2101;48.290;14.382;2023-04-24T01:26:21;21.43;;;1.87;;
4174;SDS011;2101;48.290;14.382;2023-04-24T01:28:50;14.67;;;1.87;;
4174;SDS011;2101;48.290;14.382;2023-04-24T01:31:17;20.77;;;2.80;;
4174;SDS011;2101;48.290;14.382;2023-04-24T01:33:44;17.80;;;2.10;;
4174;SDS011;2101;48.290;14.382;2023-04-24T01:36:10;15.60;;;2.10;;
4174;SDS011;2101;48.290;14.382;2023-04-24T01:38:37;17.40;;;1.87;;
4174;SDS011;2101;48.290;14.382;2023-04-24T01:41:03;15.10;;;1.77;;
4174;SDS011;2101;48.290;14.382;2023-04-24T01:43:29;13.80;;;1.83;;
4174;SDS011;2101;48.290;14.382;2023-04-24T01:45:56;14.73;;;1.60;;
4174;SDS011;2101;48.290;14.382;2023-04-24T01:48:25;16.23;;;1.70;;
4174;SDS011;2101;48.290;14.382;2023-04-24T01:50:56;16.73;;;1.97;;
4174;SDS011;2101;48.290;14.382;2023-04-24T01:53:22;15.40;;;1.87;;
4174;SDS011;2101;48.290;14.382;2023-04-24T01:55:52;17.43;;;1.80;;
4174;SDS011;2101;48.290;14.382;2023-04-24T01:58:24;17.80;;;1.93;;
4174;SDS011;2101;48.290;14.382;2023-04-24T02:00:51;14.20;;;1.63;;
4174;SDS011;2101;48.290;14.382;2023-04-24T02:03:17;13.50;;;1.40;;
4174;SDS011;2101;48.290;14.382;2023-04-24T02:05:46;13.90;;;1.63;;
4174;SDS011;2101;48.290;14.382;2023-04-24T02:08:12;13.20;;;1.40;;
4174;SDS011;2101;48.290;14.382;2023-04-24T02:10:38;18.00;;;1.80;;
4174;SDS011;2101;48.290;14.382;2023-04-24T02:13:04;14.50;;;1.73;;
4174;SDS011;2101;48.290;14.382;2023-04-24T02:15:31;13.97;;;1.90;;
4174;SDS011;2101;48.290;14.382;2023-04-24T02:18:00;13.47;;;1.60;;
4174;SDS011;2101;48.290;14.382;2023-04-24T02:20:27;15.53;;;1.83;;
4174;SDS011;2101;48.290;14.382;2023-04-24T02:22:53;18.53;;;2.20;;
4174;SDS011;2101;48.290;14.382;2023-04-24T02:25:20;15.03;;;1.87;;
4174;SDS011;2101;48.290;14.382;2023-04-24T02:27:46;14.07;;;1.57;;
4174;SDS011;2101;48.290;14.382;2023-04-24T02:30:12;14.10;;;1.43;;
4174;SDS011;2101;48.290;14.382;2023-04-24T02:32:38;13.70;;;1.70;;
4174;SDS011;2101;48.290;14.382;2023-04-24T02:35:05;13.77;;;1.40;;
4174;SDS011;2101;48.290;14.382;2023-04-24T02:37:32;13.10;;;1.40;;
4174;SDS011;2101;48.290;14.382;2023-04-24T02:39:58;14.60;;;1.73;;
4174;SDS011;2101;48.290;14.382;2023-04-24T02:42:27;15.37;;;1.50;;
4174;SDS011;2101;48.290;14.382;2023-04-24T02:44:53;13.53;;;1.30;;
4174;SDS011;2101;48.290;14.382;2023-04-24T02:47:19;13.93;;;1.70;;
4174;SDS011;2101;48.290;14.382;2023-04-24T02:49:49;15.30;;;1.77;;
4174;SDS011;2101;48.290;14.382;2023-04-24T02:52:15;13.70;;;1.90;;
4174;SDS011;2101;48.290;14.382;2023-04-24T02:54:42;14.00;;;1.60;;
4174;SDS011;2101;48.290;14.382;2023-04-24T02:57:08;12.97;;;1.50;;
4174;SDS011;2101;48.290;14.382;2023-04-24T02:59:34;14.30;;;2.17;;
4174;SDS011;2101;48.290;14.382;2023-04-24T03:02:00;13.30;;;1.70;;
4174;SDS011;2101;48.290;14.382;2023-04-24T03:04:26;14.90;;;1.87;;
4174;SDS011;2101;48.290;14.382;2023-04-24T03:06:52;14.73;;;1.57;;
4174;SDS011;2101;48.290;14.382;2023-04-24T03:09:20;13.67;;;1.80;;
4174;SDS011;2101;48.290;14.382;2023-04-24T03:11:49;14.60;;;1.80;;
4174;SDS011;2101;48.290;14.382;2023-04-24T03:14:16;14.93;;;1.80;;
4174;SDS011;2101;48.290;14.382;2023-04-24T03:16:42;14.50;;;1.97;;
4174;SDS011;2101;48.290;14.382;2023-04-24T03:19:08;19.23;;;1.90;;
4174;SDS011;2101;48.290;14.382;2023-04-24T03:21:34;19.80;;;2.00;;
4174;SDS011;2101;48.290;14.382;2023-04-24T03:24:00;20.10;;;1.87;;
4174;SDS011;2101;48.290;14.382;2023-04-24T03:26:27;15.83;;;2.23;;
4174;SDS011;2101;48.290;14.382;2023-04-24T03:28:53;15.40;;;2.00;;
4174;SDS011;2101;48.290;14.382;2023-04-24T03:31:19;15.40;;;2.40;;
4174;SDS011;2101;48.290;14.382;2023-04-24T03:33:46;15.77;;;2.00;;
4174;SDS011;2101;48.290;14.382;2023-04-24T03:36:12;17.53;;;2.40;;
4174;SDS011;2101;48.290;14.382;2023-04-24T03:38:38;18.07;;;2.43;;
4174;SDS011;2101;48.290;14.382;2023-04-24T03:41:04;16.07;;;1.90;;
4174;SDS011;2101;48.290;14.382;2023-04-24T03:43:31;13.87;;;1.90;;
4174;SDS011;2101;48.290;14.382;2023-04-24T03:45:59;13.47;;;1.87;;
4174;SDS011;2101;48.290;14.382;2023-04-24T03:48:25;14.90;;;1.90;;
4174;SDS011;2101;48.290;14.382;2023-04-24T03:50:52;16.87;;;2.30;;
4174;SDS011;2101;48.290;14.382;2023-04-24T03:53:19;16.37;;;2.73;;
4174;SDS011;2101;48.290;14.382;2023-04-24T03:55:45;19.43;;;2.57;;
4174;SDS011;2101;48.290;14.382;2023-04-24T03:58:11;18.67;;;2.77;;
4174;SDS011;2101;48.290;14.382;2023-04-24T04:00:39;19.53;;;3.10;;
4174;SDS011;2101;48.290;14.382;2023-04-24T04:03:05;16.63;;;2.83;;
4174;SDS011;2101;48.290;14.382;2023-04-24T04:05:32;14.50;;;2.50;;
4174;SDS011;2101;48.290;14.382;2023-04-24T04:07:58;14.50;;;2.53;;
4174;SDS011;2101;48.290;14.382;2023-04-24T04:10:24;16.27;;;2.87;;
4174;SDS011;2101;48.290;14.382;2023-04-24T04:12:50;17.63;;;3.00;;
4174;SDS011;2101;48.290;14.382;2023-04-24T04:15:16;15.20;;;2.47;;
4174;SDS011;2101;48.290;14.382;2023-04-24T04:17:42;14.40;;;2.70;;
4174;SDS011;2101;48.290;14.382;2023-04-24T04:20:08;20.53;;;2.10;;
4174;SDS011;2101;48.290;14.382;2023-04-24T04:22:36;17.80;;;3.10;;
4174;SDS011;2101;48.290;14.382;2023-04-24T04:25:02;17.87;;;2.70;;
4174;SDS011;2101;48.290;14.382;2023-04-24T04:27:29;17.23;;;2.90;;
4174;SDS011;2101;48.290;14.382;2023-04-24T04:30:00;14.90;;;2.90;;
4174;SDS011;2101;48.290;14.382;2023-04-24T04:32:32;14.67;;;2.50;;
4174;SDS011;2101;48.290;14.382;2023-04-24T04:34:59;17.50;;;3.23;;
4174;SDS011;2101;48.290;14.382;2023-04-24T04:37:28;14.40;;;2.93;;
4174;SDS011;2101;48.290;14.382;2023-04-24T04:39:54;15.80;;;2.67;;
4174;SDS011;2101;48.290;14.382;2023-04-24T04:42:20;15.37;;;2.73;;
4174;SDS011;2101;48.290;14.382;2023-04-24T04:44:48;18.50;;;2.90;;
4174;SDS011;2101;48.290;14.382;2023-04-24T04:47:15;19.20;;;2.87;;
4174;SDS011;2101;48.290;14.382;2023-04-24T04:49:42;17.07;;;3.10;;
4174;SDS011;2101;48.290;14.382;2023-04-24T04:52:09;14.47;;;2.30;;
4174;SDS011;2101;48.290;14.382;2023-04-24T04:54:35;15.20;;;2.77;;
4174;SDS011;2101;48.290;14.382;2023-04-24T04:57:01;16.33;;;2.30;;
4174;SDS011;2101;48.290;14.382;2023-04-24T04:59:27;14.30;;;2.23;;
4174;SDS011;2101;48.290;14.382;2023-04-24T05:01:53;13.80;;;2.03;;
4174;SDS011;2101;48.290;14.382;2023-04-24T05:04:19;16.30;;;2.80;;
4174;SDS011;2101;48.290;14.382;2023-04-24T05:06:45;14.90;;;2.20;;
4174;SDS011;2101;48.290;14.382;2023-04-24T05:09:15;14.13;;;2.00;;
4174;SDS011;2101;48.290;14.382;2023-04-24T05:11:41;13.40;;;1.77;;
4174;SDS011;2101;48.290;14.382;2023-04-24T05:14:07;17.07;;;1.87;;
4174;SDS011;2101;48.290;14.382;2023-04-24T05:16:33;13.30;;;1.67;;
4174;SDS011;2101;48.290;14.382;2023-04-24T05:19:03;13.37;;;1.60;;
4174;SDS011;2101;48.290;14.382;2023-04-24T05:21:29;13.83;;;1.90;;
4174;SDS011;2101;48.290;14.382;2023-04-24T05:23:59;20.37;;;2.00;;
4174;SDS011;2101;48.290;14.382;2023-04-24T05:26:26;22.83;;;3.10;;
4174;SDS011;2101;48.290;14.382;2023-04-24T05:28:52;15.43;;;2.77;;
4174;SDS011;2101;48.290;14.382;2023-04-24T05:31:19;15.10;;;1.83;;
4174;SDS011;2101;48.290;14.382;2023-04-24T05:33:47;26.23;;;2.53;;
4174;SDS011;2101;48.290;14.382;2023-04-24T05:36:13;17.47;;;1.87;;
4174;SDS011;2101;48.290;14.382;2023-04-24T05:38:40;13.13;;;1.13;;
4174;SDS011;2101;48.290;14.382;2023-04-24T05:41:09;14.13;;;1.70;;
4174;SDS011;2101;48.290;14.382;2023-04-24T05:43:35;17.00;;;1.37;;
4174;SDS011;2101;48.290;14.382;2023-04-24T05:46:01;13.77;;;1.30;;
4174;SDS011;2101;48.290;14.382;2023-04-24T05:48:30;14.70;;;1.53;;
4174;SDS011;2101;48.290;14.382;2023-04-24T05:50:57;12.03;;;1.17;;
4174;SDS011;2101;48.290;14.382;2023-04-24T05:53:26;16.53;;;1.30;;
4174;SDS011;2101;48.290;14.382;2023-04-24T05:55:54;12.93;;;1.43;;
4174;SDS011;2101;48.290;14.382;2023-04-24T05:58:24;22.40;;;1.33;;
4174;SDS011;2101;48.290;14.382;2023-04-24T06:00:50;12.40;;;1.23;;
4174;SDS011;2101;48.290;14.382;2023-04-24T06:03:20;11.87;;;1.10;;
4174;SDS011;2101;48.290;14.382;2023-04-24T06:05:49;14.23;;;1.30;;
4174;SDS011;2101;48.290;14.382;2023-04-24T06:08:16;13.00;;;1.20;;
4174;SDS011;2101;48.290;14.382;2023-04-24T06:10:43;17.10;;;1.60;;
4174;SDS011;2101;48.290;14.382;2023-04-24T06:13:26;12.20;;;1.00;;
4174;SDS011;2101;48.290;14.382;2023-04-24T06:15:54;14.17;;;1.40;;
4174;SDS011;2101;48.290;14.382;2023-04-24T06:18:21;16.70;;;2.20;;
4174;SDS011;2101;48.290;14.382;2023-04-24T06:20:52;13.77;;;1.63;;
4174;SDS011;2101;48.290;14.382;2023-04-24T06:23:55;15.20;;;2.67;;
4174;SDS011;2101;48.290;14.382;2023-04-24T07:56:40;13.47;;;1.30;;
4174;SDS011;2101;48.290;14.382;2023-04-24T08:18:30;13.63;;;1.43;;
4174;SDS011;2101;48.290;14.382;2023-04-24T08:21:37;14.73;;;1.30;;
4174;SDS011;2101;48.290;14.382;2023-04-24T08:24:21;13.20;;;1.30;;
4174;SDS011;2101;48.290;14.382;2023-04-24T08:27:39;12.90;;;1.60;;
4174;SDS011;2101;48.290;14.382;2023-04-24T08:30:11;12.70;;;1.00;;
4174;SDS011;2101;48.290;14.382;2023-04-24T08:32:42;14.60;;;2.03;;
4174;SDS011;2101;48.290;14.382;2023-04-24T08:35:37;32.03;;;1.70;;
4174;SDS011;2101;48.290;14.382;2023-04-24T08:38:52;15.73;;;1.90;;
4174;SDS011;2101;48.290;14.382;2023-04-24T09:01:24;16.23;;;1.30;;
4174;SDS011;2101;48.290;14.382;2023-04-24T09:04:37;13.70;;;1.57;;
4174;SDS011;2101;48.290;14.382;2023-04-24T09:07:53;13.80;;;1.10;;
4174;SDS011;2101;48.290;14.382;2023-04-24T09:10:54;12.10;;;1.13;;
4174;SDS011;2101;48.290;14.382;2023-04-24T09:32:26;13.80;;;1.27;;
4174;SDS011;2101;48.290;14.382;2023-04-24T09:38:42;13.77;;;1.37;;
4174;SDS011;2101;48.290;14.382;2023-04-24T09:41:31;12.10;;;1.20;;
4174;SDS011;2101;48.290;14.382;2023-04-24T09:44:14;14.97;;;1.60;;
4174;SDS011;2101;48.290;14.382;2023-04-24T09:47:10;14.13;;;1.60;;
4174;SDS011;2101;48.290;14.382;2023-04-24T10:04:05;13.17;;;1.10;;
4174;SDS011;2101;48.290;14.382;2023-04-24T10:07:12;33.13;;;1.80;;
4174;SDS011;2101;48.290;14.382;2023-04-24T10:10:13;12.27;;;1.27;;
4174;SDS011;2101;48.290;14.382;2023-04-24T10:13:20;12.83;;;1.30;;
4174;SDS011;2101;48.290;14.382;2023-04-24T10:16:08;13.93;;;0.97;;
4174;SDS011;2101;48.290;14.382;2023-04-24T10:18:57;12.20;;;1.20;;
4174;SDS011;2101;48.290;14.382;2023-04-24T10:21:27;15.77;;;1.30;;
4174;SDS011;2101;48.290;14.382;2023-04-24T10:23:55;11.93;;;1.10;;
4174;SDS011;2101;48.290;14.382;2023-04-24T10:26:21;14.10;;;1.63;;
4174;SDS011;2101;48.290;14.382;2023-04-24T10:28:49;17.10;;;1.70;;
4174;SDS011;2101;48.290;14.382;2023-04-24T10:31:16;13.20;;;1.43;;
4174;SDS011;2101;48.290;14.382;2023-04-24T10:33:42;13.07;;;1.47;;
4174;SDS011;2101;48.290;14.382;2023-04-24T10:36:09;13.60;;;1.30;;
4174;SDS011;2101;48.290;14.382;2023-04-24T10:38:36;13.73;;;1.53;;
4174;SDS011;2101;48.290;14.382;2023-04-24T10:41:08;12.70;;;1.20;;
4174;SDS011;2101;48.290;14.382;2023-04-24T10:43:37;12.23;;;1.00;;
4174;SDS011;2101;48.290;14.382;2023-04-24T10:46:06;12.33;;;1.20;;
4174;SDS011;2101;48.290;14.382;2023-04-24T10:48:42;12.10;;;1.00;;
4174;SDS011;2101;48.290;14.382;2023-04-24T10:51:11;12.10;;;1.10;;
4174;SDS011;2101;48.290;14.382;2023-04-24T10:53:42;14.73;;;1.63;;
4174;SDS011;2101;48.290;14.382;2023-04-24T10:56:09;15.23;;;1.23;;
4174;SDS011;2101;48.290;14.382;2023-04-24T10:58:53;12.93;;;1.20;;
4174;SDS011;2101;48.290;14.382;2023-04-24T11:01:29;12.40;;;1.00;;
4174;SDS011;2101;48.290;14.382;2023-04-24T11:04:01;12.00;;;0.83;;
4174;SDS011;2101;48.290;14.382;2023-04-24T11:06:36;11.93;;;0.90;;
4174;SDS011;2101;48.290;14.382;2023-04-24T11:09:06;12.37;;;0.90;;
4174;SDS011;2101;48.290;14.382;2023-04-24T11:11:33;12.00;;;0.80;;
4174;SDS011;2101;48.290;14.382;2023-04-24T11:19:05;12.90;;;0.90;;
4174;SDS011;2101;48.290;14.382;2023-04-24T11:21:33;12.60;;;1.00;;
4174;SDS011;2101;48.290;14.382;2023-04-24T11:37:36;12.83;;;0.90;;
4174;SDS011;2101;48.290;14.382;2023-04-24T11:40:03;12.07;;;0.77;;
4174;SDS011;2101;48.290;14.382;2023-04-24T11:42:36;11.87;;;0.73;;
4174;SDS011;2101;48.290;14.382;2023-04-24T11:45:07;11.93;;;0.70;;
4174;SDS011;2101;48.290;14.382;2023-04-24T11:47:33;12.37;;;0.70;;
4174;SDS011;2101;48.290;14.382;2023-04-24T11:50:00;12.87;;;0.90;;
4174;SDS011;2101;48.290;14.382;2023-04-24T11:52:27;12.10;;;0.80;;
4174;SDS011;2101;48.290;14.382;2023-04-24T11:54:53;13.40;;;1.00;;
4174;SDS011;2101;48.290;14.382;2023-04-24T11:57:20;13.00;;;0.90;;
4174;SDS011;2101;48.290;14.382;2023-04-24T11:59:53;13.33;;;1.10;;
4174;SDS011;2101;48.290;14.382;2023-04-24T12:02:39;12.10;;;0.80;;
4174;SDS011;2101;48.290;14.382;2023-04-24T12:05:31;13.20;;;1.10;;
4174;SDS011;2101;48.290;14.382;2023-04-24T12:08:31;16.60;;;1.30;;
4174;SDS011;2101;48.290;14.382;2023-04-24T12:11:09;12.60;;;0.80;;
4174;SDS011;2101;48.290;14.382;2023-04-24T12:13:35;14.03;;;0.77;;
4174;SDS011;2101;48.290;14.382;2023-04-24T12:16:03;14.37;;;0.90;;
4174;SDS011;2101;48.290;14.382;2023-04-24T12:18:31;11.90;;;0.70;;
4174;SDS011;2101;48.290;14.382;2023-04-24T12:24:06;11.67;;;0.70;;
4174;SDS011;2101;48.290;14.382;2023-04-24T12:26:37;11.67;;;0.60;;
4174;SDS011;2101;48.290;14.382;2023-04-24T12:29:08;11.67;;;0.70;;
4174;SDS011;2101;48.290;14.382;2023-04-24T12:31:34;11.73;;;0.70;;
4174;SDS011;2101;48.290;14.382;2023-04-24T12:34:01;11.40;;;0.60;;
4174;SDS011;2101;48.290;14.382;2023-04-24T12:36:37;11.67;;;0.67;;
4174;SDS011;2101;48.290;14.382;2023-04-24T13:28:04;15.10;;;1.90;;
4174;SDS011;2101;48.290;14.382;2023-04-24T13:30:30;14.53;;;1.10;;
4174;SDS011;2101;48.290;14.382;2023-04-24T13:32:57;12.13;;;1.00;;
4174;SDS011;2101;48.290;14.382;2023-04-24T13:35:23;13.70;;;1.20;;
4174;SDS011;2101;48.290;14.382;2023-04-24T13:37:49;11.97;;;0.90;;
4174;SDS011;2101;48.290;14.382;2023-04-24T13:40:15;12.40;;;1.07;;
4174;SDS011;2101;48.290;14.382;2023-04-24T13:42:41;12.40;;;1.10;;
4174;SDS011;2101;48.290;14.382;2023-04-24T13:45:07;12.33;;;1.07;;
4174;SDS011;2101;48.290;14.382;2023-04-24T13:47:34;12.27;;;0.90;;
4174;SDS011;2101;48.290;14.382;2023-04-24T13:50:01;12.60;;;1.00;;
4174;SDS011;2101;48.290;14.382;2023-04-24T13:52:27;12.17;;;1.03;;
4174;SDS011;2101;48.290;14.382;2023-04-24T13:54:53;13.73;;;1.07;;
4174;SDS011;2101;48.290;14.382;2023-04-24T13:57:20;11.73;;;0.87;;
4174;SDS011;2101;48.290;14.382;2023-04-24T13:59:46;12.07;;;1.00;;
4174;SDS011;2101;48.290;14.382;2023-04-24T14:02:12;17.27;;;1.23;;
4174;SDS011;2101;48.290;14.382;2023-04-24T14:04:39;15.50;;;1.03;;
4174;SDS011;2101;48.290;14.382;2023-04-24T14:07:05;11.77;;;0.90;;
4174;SDS011;2101;48.290;14.382;2023-04-24T14:09:31;11.77;;;0.80;;
4174;SDS011;2101;48.290;14.382;2023-04-24T14:11:57;12.60;;;1.10;;
4174;SDS011;2101;48.290;14.382;2023-04-24T14:14:23;12.00;;;0.93;;
4174;SDS011;2101;48.290;14.382;2023-04-24T14:16:49;11.80;;;0.90;;
4174;SDS011;2101;48.290;14.382;2023-04-24T14:19:16;12.17;;;0.90;;
4174;SDS011;2101;48.290;14.382;2023-04-24T14:21:42;13.27;;;1.33;;
4174;SDS011;2101;48.290;14.382;2023-04-24T14:24:08;12.67;;;1.30;;
4174;SDS011;2101;48.290;14.382;2023-04-24T14:26:34;12.50;;;1.00;;
4174;SDS011;2101;48.290;14.382;2023-04-24T14:29:00;12.57;;;0.90;;
4174;SDS011;2101;48.290;14.382;2023-04-24T14:31:27;12.47;;;1.00;;
4174;SDS011;2101;48.290;14.382;2023-04-24T14:33:53;13.30;;;1.40;;
4174;SDS011;2101;48.290;14.382;2023-04-24T14:36:19;12.30;;;1.00;;
4174;SDS011;2101;48.290;14.382;2023-04-24T14:38:45;12.93;;;1.07;;
4174;SDS011;2101;48.290;14.382;2023-04-24T14:41:11;12.87;;;1.27;;
4174;SDS011;2101;48.290;14.382;2023-04-24T14:43:37;12.27;;;0.90;;
4174;SDS011;2101;48.290;14.382;2023-04-24T14:46:03;12.77;;;1.00;;
4174;SDS011;2101;48.290;14.382;2023-04-24T14:48:30;12.30;;;1.10;;
4174;SDS011;2101;48.290;14.382;2023-04-24T14:50:59;11.80;;;0.87;;
4174;SDS011;2101;48.290;14.382;2023-04-24T14:53:25;12.53;;;0.93;;
4174;SDS011;2101;48.290;14.382;2023-04-24T14:55:51;12.60;;;1.00;;
4174;SDS011;2101;48.290;14.382;2023-04-24T14:58:18;12.80;;;1.17;;
4174;SDS011;2101;48.290;14.382;2023-04-24T15:00:44;12.70;;;1.33;;
4174;SDS011;2101;48.290;14.382;2023-04-24T15:03:11;12.03;;;0.93;;
4174;SDS011;2101;48.290;14.382;2023-04-24T15:05:37;12.10;;;0.90;;
4174;SDS011;2101;48.290;14.382;2023-04-24T15:08:03;18.10;;;1.30;;
4174;SDS011;2101;48.290;14.382;2023-04-24T15:10:29;12.10;;;0.97;;
4174;SDS011;2101;48.290;14.382;2023-04-24T16:08:47;12.53;;;1.30;;
4174;SDS011;2101;48.290;14.382;2023-04-24T16:11:41;12.13;;;1.03;;
4174;SDS011;2101;48.290;14.382;2023-04-24T16:14:09;14.70;;;1.20;;
4174;SDS011;2101;48.290;14.382;2023-04-24T16:17:00;13.63;;;1.50;;
4174;SDS011;2101;48.290;14.382;2023-04-24T16:19:29;17.53;;;1.33;;
4174;SDS011;2101;48.290;14.382;2023-04-24T16:21:58;14.60;;;1.43;;
4174;SDS011;2101;48.290;14.382;2023-04-24T16:24:25;11.80;;;0.90;;
4174;SDS011;2101;48.290;14.382;2023-04-24T16:26:58;13.60;;;1.10;;
4174;SDS011;2101;48.290;14.382;2023-04-24T16:29:29;13.13;;;1.20;;
4174;SDS011;2101;48.290;14.382;2023-04-24T16:31:56;13.17;;;1.20;;
4174;SDS011;2101;48.290;14.382;2023-04-24T16:34:23;13.77;;;1.30;;
4174;SDS011;2101;48.290;14.382;2023-04-24T16:36:49;14.17;;;1.57;;
4174;SDS011;2101;48.290;14.382;2023-04-24T16:39:33;12.90;;;1.07;;
4174;SDS011;2101;48.290;14.382;2023-04-24T16:42:28;11.90;;;1.27;;
4174;SDS011;2101;48.290;14.382;2023-04-24T16:44:55;13.70;;;1.30;;
4174;SDS011;2101;48.290;14.382;2023-04-24T16:47:27;12.50;;;1.10;;
4174;SDS011;2101;48.290;14.382;2023-04-24T16:50:05;13.30;;;1.10;;
4174;SDS011;2101;48.290;14.382;2023-04-24T16:55:36;12.53;;;1.40;;
4174;SDS011;2101;48.290;14.382;2023-04-24T16:58:20;16.07;;;1.40;;
4174;SDS011;2101;48.290;14.382;2023-04-24T17:01:26;13.20;;;1.50;;
4174;SDS011;2101;48.290;14.382;2023-04-24T17:04:01;14.20;;;1.93;;
4174;SDS011;2101;48.290;14.382;2023-04-24T17:06:31;12.40;;;1.33;;
4174;SDS011;2101;48.290;14.382;2023-04-24T17:08:59;13.77;;;1.50;;
4174;SDS011;2101;48.290;14.382;2023-04-24T17:11:33;12.83;;;1.40;;
4174;SDS011;2101;48.290;14.382;2023-04-24T17:14:03;15.10;;;1.37;;
4174;SDS011;2101;48.290;14.382;2023-04-24T17:17:08;11.87;;;1.10;;
4174;SDS011;2101;48.290;14.382;2023-04-24T17:19:45;12.17;;;1.20;;
4174;SDS011;2101;48.290;14.382;2023-04-24T17:22:53;13.17;;;1.10;;
4174;SDS011;2101;48.290;14.382;2023-04-24T17:25:22;15.73;;;1.50;;
4174;SDS011;2101;48.290;14.382;2023-04-24T17:28:00;14.53;;;1.43;;
4174;SDS011;2101;48.290;14.382;2023-04-24T17:30:26;17.10;;;1.57;;
4174;SDS011;2101;48.290;14.382;2023-04-24T17:32:54;16.50;;;1.63;;
4174;SDS011;2101;48.290;14.382;2023-04-24T17:35:35;14.20;;;1.50;;
4174;SDS011;2101;48.290;14.382;2023-04-24T17:38:09;18.50;;;2.17;;
4174;SDS011;2101;48.290;14.382;2023-04-24T17:40:55;14.80;;;1.33;;
4174;SDS011;2101;48.290;14.382;2023-04-24T17:43:22;16.10;;;1.40;;
4174;SDS011;2101;48.290;14.382;2023-04-24T17:46:03;18.30;;;1.50;;
4174;SDS011;2101;48.290;14.382;2023-04-24T17:49:03;13.87;;;1.53;;
4174;SDS011;2101;48.290;14.382;2023-04-24T17:51:52;17.97;;;1.77;;
4174;SDS011;2101;48.290;14.382;2023-04-24T17:54:42;15.67;;;1.80;;
4174;SDS011;2101;48.290;14.382;2023-04-24T17:57:44;13.37;;;1.67;;
4174;SDS011;2101;48.290;14.382;2023-04-24T18:03:17;14.03;;;1.40;;
4174;SDS011;2101;48.290;14.382;2023-04-24T18:05:48;13.07;;;1.40;;
4174;SDS011;2101;48.290;14.382;2023-04-24T18:08:15;18.30;;;2.07;;
4174;SDS011;2101;48.290;14.382;2023-04-24T18:10:44;13.70;;;1.47;;
4174;SDS011;2101;48.290;14.382;2023-04-24T18:13:18;13.70;;;1.70;;
4174;SDS011;2101;48.290;14.382;2023-04-24T18:15:46;14.90;;;1.60;;
4174;SDS011;2101;48.290;14.382;2023-04-24T18:18:13;14.80;;;1.67;;
4174;SDS011;2101;48.290;14.382;2023-04-24T18:20:41;19.10;;;1.93;;
4174;SDS011;2101;48.290;14.382;2023-04-24T18:23:26;17.80;;;1.90;;
4174;SDS011;2101;48.290;14.382;2023-04-24T18:25:55;15.33;;;2.00;;
4174;SDS011;2101;48.290;14.382;2023-04-24T18:31:08;12.80;;;1.70;;
4174;SDS011;2101;48.290;14.382;2023-04-24T18:33:40;14.17;;;2.20;;
4174;SDS011;2101;48.290;14.382;2023-04-24T18:36:24;14.60;;;1.50;;
4174;SDS011;2101;48.290;14.382;2023-04-24T18:41:49;14.13;;;1.90;;
4174;SDS011;2101;48.290;14.382;2023-04-24T18:44:40;13.00;;;1.57;;
4174;SDS011;2101;48.290;14.382;2023-04-24T18:47:08;14.60;;;1.80;;
4174;SDS011;2101;48.290;14.382;2023-04-24T18:49:58;17.40;;;2.10;;
4174;SDS011;2101;48.290;14.382;2023-04-24T18:52:26;16.13;;;2.10;;
4174;SDS011;2101;48.290;14.382;2023-04-24T18:55:08;18.27;;;2.27;;
4174;SDS011;2101;48.290;14.382;2023-04-24T18:58:25;17.67;;;3.00;;
4174;SDS011;2101;48.290;14.382;2023-04-24T19:04:09;14.63;;;1.73;;
4174;SDS011;2101;48.290;14.382;2023-04-24T19:06:56;17.00;;;2.10;;
4174;SDS011;2101;48.290;14.382;2023-04-24T19:13:19;17.50;;;2.30;;
4174;SDS011;2101;48.290;14.382;2023-04-24T19:16:17;17.37;;;2.20;;
4174;SDS011;2101;48.290;14.382;2023-04-24T19:25:00;17.73;;;2.70;;
4174;SDS011;2101;48.290;14.382;2023-04-24T19:31:04;17.47;;;2.80;;
4174;SDS011;2101;48.290;14.382;2023-04-24T19:34:19;17.00;;;3.10;;
4174;SDS011;2101;48.290;14.382;2023-04-24T19:37:05;17.43;;;2.73;;
4174;SDS011;2101;48.290;14.382;2023-04-24T19:42:55;33.40;;;3.77;;
4174;SDS011;2101;48.290;14.382;2023-04-24T19:45:21;21.30;;;2.87;;
4174;SDS011;2101;48.290;14.382;2023-04-24T19:58:15;19.00;;;2.37;;
4174;SDS011;2101;48.290;14.382;2023-04-24T21:06:22;13.87;;;2.67;;
4174;SDS011;2101;48.290;14.382;2023-04-24T21:08:49;15.93;;;3.03;;
4174;SDS011;2101;48.290;14.382;2023-04-24T21:11:16;16.67;;;3.10;;
4174;SDS011;2101;48.290;14.382;2023-04-24T21:13:42;17.00;;;2.93;;
4174;SDS011;2101;48.290;14.382;2023-04-24T21:16:08;20.03;;;3.07;;
4174;SDS011;2101;48.290;14.382;2023-04-24T21:18:35;18.00;;;3.20;;
4174;SDS011;2101;48.290;14.382;2023-04-24T21:21:06;28.37;;;3.13;;
4174;SDS011;2101;48.290;14.382;2023-04-24T21:23:34;14.87;;;2.90;;
4174;SDS011;2101;48.290;14.382;2023-04-24T21:26:03;16.23;;;3.00;;
4174;SDS011;2101;48.290;14.382;2023-04-24T21:28:29;15.23;;;2.90;;
4174;SDS011;2101;48.290;14.382;2023-04-24T21:30:55;18.00;;;2.50;;
4174;SDS011;2101;48.290;14.382;2023-04-24T21:33:22;14.77;;;2.70;;
4174;SDS011;2101;48.290;14.382;2023-04-24T21:35:48;16.80;;;2.70;;
4174;SDS011;2101;48.290;14.382;2023-04-24T21:38:15;13.77;;;2.33;;
4174;SDS011;2101;48.290;14.382;2023-04-24T21:40:43;18.83;;;3.10;;
4174;SDS011;2101;48.290;14.382;2023-04-24T21:43:10;16.30;;;2.90;;
4174;SDS011;2101;48.290;14.382;2023-04-24T21:45:36;14.97;;;3.00;;
4174;SDS011;2101;48.290;14.382;2023-04-24T21:48:02;15.07;;;2.90;;
4174;SDS011;2101;48.290;14.382;2023-04-24T21:50:28;16.20;;;2.80;;
4174;SDS011;2101;48.290;14.382;2023-04-24T21:52:55;17.53;;;3.50;;